Time;durP1;ratioP1;P1;durP2;ratioP2;P2;SDS_P1;SDS_P2;PMS_P1;PMS_P2;Temp;Humidity;BMP_temperature;BMP_pressure;BME280_temperature;BME280_humidity;BME280_pressure;Samples;Min_cycle;Max_cycle;Signal;HPM_P1;HPM_P2
2023/01/10 00:00:17;;;;;;;;;;;8.00;99.90;;;;;;2025244;29;20355;-70
2023/01/10 00:01:17;;;;;;;;;;;8.00;99.90;;;;;;2023739;29;20331;-70
2023/01/10 00:02:18;;;;;;;;;;;8.00;99.90;;;;;;2024739;29;19967;-70
2023/01/10 00:03:18;;;;;;;;;;;8.00;99.90;;;;;;2025484;29;19912;-70
2023/01/10 00:04:19;;;;;;;;;;;8.00;99.90;;;;;;2024409;29;19918;-70
2023/01/10 00:05:19;;;;;;;;;;;8.00;99.90;;;;;;2024843;29;21468;-70
2023/01/10 00:06:20;;;;;;;;;;;8.00;99.90;;;;;;2027095;29;19966;-70
2023/01/10 00:07:20;;;;;;;;;;;8.10;99.90;;;;;;2024723;29;19915;-70
2023/01/10 00:08:20;;;;;;;;;;;8.00;99.90;;;;;;2024040;29;19970;-70
2023/01/10 00:09:21;;;;;;;;;;;8.00;99.90;;;;;;2025232;29;19919;-70
2023/01/10 00:10:22;;;;;;;;;;;8.00;99.90;;;;;;2024102;29;19915;-70
2023/01/10 00:14:01;;;;;;;;;;;8.00;99.90;;;;;;2024413;29;19912;-70
2023/01/10 00:15:01;;;;;;;;;;;8.00;99.90;;;;;;2024508;29;19923;-70
2023/01/10 00:16:06;;;;;;;;;;;8.00;99.90;;;;;;2024937;29;20351;-70
2023/01/10 00:17:07;;;;;;;;;;;8.00;99.90;;;;;;2027674;29;20350;-70
2023/01/10 00:18:07;;;;;;;;;;;8.00;99.90;;;;;;2027648;29;19915;-70
2023/01/10 00:19:09;;;;;;;;;;;8.00;99.90;;;;;;2021855;29;20028;-70
2023/01/10 00:20:10;;;;;;;;;;;8.00;99.90;;;;;;2024509;29;19915;-70
2023/01/10 00:21:10;;;;;;;;;;;8.00;99.90;;;;;;2024989;29;20010;-70
2023/01/10 00:22:11;;;;;;;;;;;8.00;99.90;;;;;;2024743;29;19926;-70
2023/01/10 00:23:11;;;;;;;;;;;8.00;99.90;;;;;;2024510;29;19911;-70
2023/01/10 00:24:18;;;;;;;;;;;8.00;99.90;;;;;;2025285;29;19915;-70
2023/01/10 00:25:21;;;;;;;;;;;8.00;99.90;;;;;;2024665;29;19921;-70
2023/01/10 00:26:21;;;;;;;;;;;8.00;99.90;;;;;;2025767;29;19918;-70
2023/01/10 00:27:21;;;;;;;;;;;8.00;99.90;;;;;;2027260;29;19954;-70
2023/01/10 00:28:22;;;;;;;;;;;8.00;99.90;;;;;;2026657;29;19911;-70
2023/01/10 00:29:27;;;;;;;;;;;8.00;99.90;;;;;;2024918;29;20315;-70
2023/01/10 00:30:27;;;;;;;;;;;8.00;99.90;;;;;;2022601;29;19942;-70
2023/01/10 00:31:28;;;;;;;;;;;8.00;99.90;;;;;;2023924;29;19916;-70
2023/01/10 00:32:28;;;;;;;;;;;8.00;99.90;;;;;;2024933;29;19946;-70
2023/01/10 00:33:30;;;;;;;;;;;8.10;99.90;;;;;;2022814;29;20347;-70
2023/01/10 00:34:31;;;;;;;;;;;8.10;99.90;;;;;;2025407;29;20760;-70
2023/01/10 00:35:32;;;;;;;;;;;8.00;99.90;;;;;;2022627;29;19915;-70
2023/01/10 00:36:32;;;;;;;;;;;8.10;99.90;;;;;;2024809;29;19918;-70
2023/01/10 00:37:33;;;;;;;;;;;8.00;99.90;;;;;;2024159;29;20363;-70
2023/01/10 00:38:33;;;;;;;;;;;8.10;99.90;;;;;;2026165;29;20919;-70
2023/01/10 00:39:34;;;;;;;;;;;8.00;99.90;;;;;;2025771;29;19982;-70
2023/01/10 00:40:34;;;;;;;;;;;8.10;99.90;;;;;;2027181;29;19922;-70
2023/01/10 00:44:15;;;;;;;;;;;8.10;99.90;;;;;;2015657;29;19915;-70
2023/01/10 00:45:15;;;;;;;;;;;8.10;99.90;;;;;;2021681;29;20006;-70
2023/01/10 00:46:16;;;;;;;;;;;8.00;99.90;;;;;;2031883;29;20390;-70
2023/01/10 00:47:17;;;;;;;;;;;8.10;99.90;;;;;;2031514;29;20204;-70
2023/01/10 00:48:18;;;;;;;;;;;8.10;99.90;;;;;;2026082;29;19912;-70
2023/01/10 00:49:18;;;;;;;;;;;8.00;99.90;;;;;;2024898;29;19953;-70
2023/01/10 00:50:18;;;;;;;;;;;8.00;99.90;;;;;;2028347;29;19907;-70
2023/01/10 00:51:19;;;;;;;;;;;8.00;99.90;;;;;;2024470;29;19920;-70
2023/01/10 00:52:19;;;;;;;;;;;8.00;99.90;;;;;;2023530;29;19915;-70
2023/01/10 00:53:20;;;;;;;;;;;8.00;99.90;;;;;;2023625;29;19911;-70
2023/01/10 00:54:20;;;;;;;;;;;8.10;99.90;;;;;;2025322;29;19907;-70
2023/01/10 00:55:21;;;;;;;;;;;8.10;99.90;;;;;;2024318;29;19911;-70
2023/01/10 00:56:21;;;;;;;;;;;8.10;99.90;;;;;;2025756;29;19911;-70
2023/01/10 00:57:22;;;;;;;;;;;8.10;99.90;;;;;;2022784;29;19918;-70
2023/01/10 00:58:22;;;;;;;;;;;8.10;99.90;;;;;;2024233;29;19915;-70
2023/01/10 00:59:23;;;;;;;;;;;8.10;99.90;;;;;;2024768;29;19911;-70
2023/01/10 01:00:23;;;;;;;;;;;8.00;99.90;;;;;;2023034;29;19908;-70
2023/01/10 01:01:24;;;;;;;;;;;8.10;99.90;;;;;;2025395;29;19916;-70
2023/01/10 01:02:24;;;;;;;;;;;8.10;99.90;;;;;;2024202;29;20368;-70
2023/01/10 01:03:25;;;;;;;;;;;8.10;99.90;;;;;;2024608;29;19907;-70
2023/01/10 01:04:25;;;;;;;;;;;8.00;99.90;;;;;;2023676;29;19968;-69
2023/01/10 01:05:26;;;;;;;;;;;8.00;99.90;;;;;;2022911;29;19994;-70
2023/01/10 01:06:26;;;;;;;;;;;8.00;99.90;;;;;;2023840;29;19911;-70
2023/01/10 01:07:27;;;;;;;;;;;8.10;99.90;;;;;;2023922;29;19911;-70
2023/01/10 01:08:27;;;;;;;;;;;8.10;99.90;;;;;;2023174;29;20010;-70
2023/01/10 01:09:28;;;;;;;;;;;8.10;99.90;;;;;;2024154;29;19959;-70
2023/01/10 01:10:29;;;;;;;;;;;8.10;99.90;;;;;;2022921;29;19923;-70
2023/01/10 01:11:29;;;;;;;;;;;8.00;99.90;;;;;;2025338;29;19947;-70
2023/01/10 01:12:30;;;;;;;;;;;8.00;99.90;;;;;;2025068;29;19973;-70
2023/01/10 01:13:30;;;;;;;;;;;8.10;99.90;;;;;;2023311;29;20383;-69
2023/01/10 01:14:31;;;;;;;;;;;8.10;99.90;;;;;;2023660;29;19913;-70
2023/01/10 01:15:32;;;;;;;;;;;8.10;99.90;;;;;;2023261;29;19915;-70
2023/01/10 01:16:32;;;;;;;;;;;8.10;99.90;;;;;;2023511;29;20813;-70
2023/01/10 01:17:32;;;;;;;;;;;8.00;99.90;;;;;;2024284;29;19912;-70
2023/01/10 01:18:33;;;;;;;;;;;8.00;99.90;;;;;;2024482;29;19923;-70
2023/01/10 01:19:33;;;;;;;;;;;8.10;99.90;;;;;;2026777;29;19915;-70
2023/01/10 01:20:34;;;;;;;;;;;8.10;99.90;;;;;;2026467;29;19943;-70
2023/01/10 01:21:34;;;;;;;;;;;8.10;99.90;;;;;;2025454;29;20374;-70
2023/01/10 01:22:35;;;;;;;;;;;8.10;99.90;;;;;;2025150;29;19912;-70
2023/01/10 01:23:35;;;;;;;;;;;8.10;99.90;;;;;;2024349;29;19912;-70
2023/01/10 01:24:36;;;;;;;;;;;8.00;99.90;;;;;;2026186;29;20434;-70
2023/01/10 01:25:36;;;;;;;;;;;8.00;99.90;;;;;;2023355;29;19990;-70
2023/01/10 01:26:36;;;;;;;;;;;8.00;99.90;;;;;;2024949;29;20025;-70
2023/01/10 01:27:37;;;;;;;;;;;8.00;99.90;;;;;;2025831;29;19907;-70
2023/01/10 01:28:37;;;;;;;;;;;8.00;99.90;;;;;;2026684;29;20062;-70
2023/01/10 01:29:38;;;;;;;;;;;8.00;99.90;;;;;;2025979;29;20446;-70
2023/01/10 01:30:38;;;;;;;;;;;8.00;99.90;;;;;;2025596;29;19912;-70
2023/01/10 01:31:39;;;;;;;;;;;8.00;99.90;;;;;;2026547;29;20481;-70
2023/01/10 01:32:39;;;;;;;;;;;8.00;99.90;;;;;;2025344;29;19914;-70
2023/01/10 01:33:40;;;;;;;;;;;8.00;99.90;;;;;;2025830;29;20414;-70
2023/01/10 01:34:40;;;;;;;;;;;8.00;99.90;;;;;;2024846;29;19915;-70
2023/01/10 01:35:42;;;;;;;;;;;8.00;99.90;;;;;;2025858;29;19918;-70
2023/01/10 01:36:42;;;;;;;;;;;8.00;99.90;;;;;;2025393;29;19918;-70
2023/01/10 01:37:43;;;;;;;;;;;8.00;99.90;;;;;;2024470;29;19915;-70
2023/01/10 01:38:43;;;;;;;;;;;8.00;99.90;;;;;;2026517;29;20529;-70
2023/01/10 01:39:45;;;;;;;;;;;8.00;99.90;;;;;;2026231;29;19915;-70
2023/01/10 01:40:45;;;;;;;;;;;8.00;99.90;;;;;;2024912;29;19915;-70
2023/01/10 01:41:59;;;;;;;;;;;8.00;99.90;;;;;;2025299;29;19911;-70
2023/01/10 01:42:59;;;;;;;;;;;8.00;99.90;;;;;;2024948;29;19916;-70
2023/01/10 01:44:13;;;;;;;;;;;8.00;99.90;;;;;;2025906;29;20673;-70
2023/01/10 01:45:13;;;;;;;;;;;8.00;99.90;;;;;;2032913;29;20006;-70
2023/01/10 01:46:14;;;;;;;;;;;8.00;99.90;;;;;;2033446;29;20490;-70
2023/01/10 01:47:23;;;;;;;;;;;8.00;99.90;;;;;;2026020;29;20377;-70
2023/01/10 01:48:30;;;;;;;;;;;8.00;99.90;;;;;;2024204;29;19955;-70
2023/01/10 01:49:31;;;;;;;;;;;8.00;99.90;;;;;;2025732;29;19918;-70
2023/01/10 01:50:50;;;;;;;;;;;8.00;99.90;;;;;;2025619;29;19923;-70
2023/01/10 01:51:55;;;;;;;;;;;8.00;99.90;;;;;;2034300;29;19946;-70
2023/01/10 01:52:57;;;;;;;;;;;8.00;99.90;;;;;;2032594;29;19951;-70
2023/01/10 01:53:57;;;;;;;;;;;8.00;99.90;;;;;;2025444;29;19907;-70
2023/01/10 01:54:58;;;;;;;;;;;8.00;99.90;;;;;;2022103;29;19919;-70
2023/01/10 01:56:00;;;;;;;;;;;8.00;99.90;;;;;;2024759;29;20380;-70
2023/01/10 01:57:09;;;;;;;;;;;7.90;99.90;;;;;;2025674;29;19912;-70
2023/01/10 01:58:12;;;;;;;;;;;8.00;99.90;;;;;;2026330;29;19914;-70
2023/01/10 01:59:22;;;;;;;;;;;8.00;99.90;;;;;;2024470;29;19907;-70
2023/01/10 02:00:22;;;;;;;;;;;7.90;99.90;;;;;;2027065;29;19956;-70
2023/01/10 02:01:23;;;;;;;;;;;8.00;99.90;;;;;;2025954;29;19916;-70
2023/01/10 02:02:38;;;;;;;;;;;8.00;99.90;;;;;;2024701;29;19916;-70
2023/01/10 02:03:39;;;;;;;;;;;8.00;99.90;;;;;;2031619;29;19911;-70
2023/01/10 02:04:51;;;;;;;;;;;7.90;99.90;;;;;;2031045;29;19915;-70
2023/01/10 02:05:52;;;;;;;;;;;7.90;99.90;;;;;;2023748;29;20014;-70
2023/01/10 02:06:54;;;;;;;;;;;7.90;99.90;;;;;;2024565;29;19915;-70
2023/01/10 02:07:55;;;;;;;;;;;8.00;99.90;;;;;;2025365;29;20626;-70
2023/01/10 02:09:01;;;;;;;;;;;7.90;99.90;;;;;;2026000;29;19950;-70
2023/01/10 02:10:08;;;;;;;;;;;7.90;99.90;;;;;;2031431;29;19906;-70
2023/01/10 02:11:09;;;;;;;;;;;7.90;99.90;;;;;;2031789;29;20352;-70
2023/01/10 02:12:10;;;;;;;;;;;7.90;99.90;;;;;;2024895;29;20018;-70
2023/01/10 02:13:12;;;;;;;;;;;7.90;99.90;;;;;;2024048;29;19908;-70
2023/01/10 02:14:13;;;;;;;;;;;7.90;99.90;;;;;;2025463;29;19907;-70
2023/01/10 02:15:14;;;;;;;;;;;7.90;99.90;;;;;;2024717;29;19915;-70
2023/01/10 02:16:15;;;;;;;;;;;7.90;99.90;;;;;;2025529;29;20328;-70
2023/01/10 02:17:15;;;;;;;;;;;7.90;99.90;;;;;;2024538;29;19978;-70
2023/01/10 02:18:16;;;;;;;;;;;7.90;99.90;;;;;;2024172;29;19917;-70
2023/01/10 02:19:28;;;;;;;;;;;7.90;99.90;;;;;;2025191;29;19922;-70
2023/01/10 02:20:32;;;;;;;;;;;7.90;99.90;;;;;;2024542;29;20362;-70
2023/01/10 02:21:40;;;;;;;;;;;7.90;99.90;;;;;;2026398;29;19917;-70
2023/01/10 02:22:55;;;;;;;;;;;7.90;99.90;;;;;;2025861;29;19908;-70
2023/01/10 02:24:15;;;;;;;;;;;7.90;99.90;;;;;;2026155;29;19907;-70
2023/01/10 02:25:21;;;;;;;;;;;7.90;99.90;;;;;;2023954;29;19919;-70
2023/01/10 02:26:33;;;;;;;;;;;7.90;99.90;;;;;;2023993;29;19942;-70
2023/01/10 02:27:56;;;;;;;;;;;7.90;99.90;;;;;;2025105;29;19915;-70
2023/01/10 02:29:02;;;;;;;;;;;7.90;99.90;;;;;;2027584;29;20011;-70
2023/01/10 02:30:25;;;;;;;;;;;7.90;99.90;;;;;;2027715;29;20375;-70
2023/01/10 02:31:28;;;;;;;;;;;7.90;99.90;;;;;;2026122;29;20002;-70
2023/01/10 02:32:39;;;;;;;;;;;7.90;99.90;;;;;;2024969;29;19979;-70
2023/01/10 02:33:45;;;;;;;;;;;7.90;99.90;;;;;;2028349;29;19927;-70
2023/01/10 02:34:58;;;;;;;;;;;7.90;99.90;;;;;;2024166;29;19918;-70
2023/01/10 02:35:58;;;;;;;;;;;7.90;99.90;;;;;;2025506;29;19990;-70
2023/01/10 02:37:03;;;;;;;;;;;7.80;99.90;;;;;;2025328;29;19915;-70
2023/01/10 02:38:20;;;;;;;;;;;7.90;99.90;;;;;;2025180;29;20394;-70
2023/01/10 02:39:30;;;;;;;;;;;7.80;99.90;;;;;;2027028;29;19912;-70
2023/01/10 02:40:50;;;;;;;;;;;7.80;99.90;;;;;;2024417;29;20379;-70
2023/01/10 02:42:06;;;;;;;;;;;7.80;99.90;;;;;;2024452;29;19912;-70
2023/01/10 02:43:18;;;;;;;;;;;7.80;99.90;;;;;;2024457;29;19942;-70
2023/01/10 02:44:23;;;;;;;;;;;7.80;99.90;;;;;;2027301;29;19959;-70
2023/01/10 02:45:23;;;;;;;;;;;7.80;99.90;;;;;;2022718;29;19917;-70
2023/01/10 02:46:26;;;;;;;;;;;7.80;99.90;;;;;;2026126;29;19922;-70
2023/01/10 02:47:33;;;;;;;;;;;7.80;99.90;;;;;;2033919;29;19911;-70
2023/01/10 02:48:33;;;;;;;;;;;7.80;99.90;;;;;;2024015;29;20423;-70
2023/01/10 02:49:44;;;;;;;;;;;7.80;99.90;;;;;;2023225;29;19982;-70
2023/01/10 02:50:49;;;;;;;;;;;7.80;99.90;;;;;;2025036;29;20762;-70
2023/01/10 02:51:49;;;;;;;;;;;7.80;99.90;;;;;;2025079;29;19907;-70
2023/01/10 02:52:50;;;;;;;;;;;7.80;99.90;;;;;;2030982;29;20731;-70
2023/01/10 02:53:54;;;;;;;;;;;7.80;99.90;;;;;;2031962;29;19911;-70
2023/01/10 02:54:57;;;;;;;;;;;7.70;99.90;;;;;;2023142;29;19919;-70
2023/01/10 02:56:17;;;;;;;;;;;7.70;99.90;;;;;;2025011;29;19911;-70
2023/01/10 02:57:39;;;;;;;;;;;7.70;99.90;;;;;;2023570;29;19971;-70
2023/01/10 02:58:57;;;;;;;;;;;7.70;99.90;;;;;;2023961;29;19916;-70
2023/01/10 03:00:10;;;;;;;;;;;7.70;99.90;;;;;;2023967;29;19916;-70
2023/01/10 03:01:35;;;;;;;;;;;7.70;99.90;;;;;;1983381;29;1199093;-70
2023/01/10 03:02:57;;;;;;;;;;;7.70;99.90;;;;;;2024475;29;19948;-70
2023/01/10 03:04:07;;;;;;;;;;;7.70;99.90;;;;;;2025341;29;19922;-70
2023/01/10 03:05:26;;;;;;;;;;;7.70;99.90;;;;;;2024304;29;19919;-70
2023/01/10 03:06:36;;;;;;;;;;;7.70;99.90;;;;;;2023968;29;19927;-70
2023/01/10 03:07:41;;;;;;;;;;;7.70;99.90;;;;;;2023919;29;19947;-70
2023/01/10 03:08:47;;;;;;;;;;;7.70;99.90;;;;;;2024883;29;19915;-70
2023/01/10 03:09:51;;;;;;;;;;;7.70;99.90;;;;;;2025135;29;19912;-70
2023/01/10 03:11:09;;;;;;;;;;;7.70;99.90;;;;;;2025247;29;19911;-70
2023/01/10 03:12:13;;;;;;;;;;;7.70;99.90;;;;;;2025800;29;19915;-69
2023/01/10 03:13:18;;;;;;;;;;;7.70;99.90;;;;;;2026037;29;19915;-69
2023/01/10 03:14:21;;;;;;;;;;;7.70;99.90;;;;;;2026411;29;19907;-69
2023/01/10 03:15:23;;;;;;;;;;;7.70;99.90;;;;;;2024977;29;20363;-69
2023/01/10 03:16:26;;;;;;;;;;;7.70;99.90;;;;;;2026233;29;19953;-69
2023/01/10 03:17:29;;;;;;;;;;;7.70;99.90;;;;;;2025758;29;20023;-70
2023/01/10 03:18:31;;;;;;;;;;;7.70;99.90;;;;;;2024849;29;19919;-70
2023/01/10 03:19:34;;;;;;;;;;;7.70;99.90;;;;;;2024545;29;19907;-70
2023/01/10 03:20:35;;;;;;;;;;;7.70;99.90;;;;;;2024903;29;19915;-70
2023/01/10 03:21:37;;;;;;;;;;;7.70;99.90;;;;;;2024500;29;19915;-70
2023/01/10 03:22:38;;;;;;;;;;;7.70;99.90;;;;;;2023703;29;20391;-70
2023/01/10 03:23:39;;;;;;;;;;;7.70;99.90;;;;;;2024739;29;19911;-70
2023/01/10 03:24:42;;;;;;;;;;;7.70;99.90;;;;;;2024433;29;19907;-70
2023/01/10 03:25:44;;;;;;;;;;;7.60;99.90;;;;;;2023176;29;19911;-70
2023/01/10 03:27:00;;;;;;;;;;;7.60;99.90;;;;;;2022984;29;20681;-70
2023/01/10 03:28:13;;;;;;;;;;;7.70;99.90;;;;;;2023305;29;19995;-70
2023/01/10 03:29:17;;;;;;;;;;;7.60;99.90;;;;;;2025258;29;19942;-69
2023/01/10 03:30:27;;;;;;;;;;;7.60;99.90;;;;;;2024444;29;20809;-70
2023/01/10 03:31:30;;;;;;;;;;;7.70;99.90;;;;;;2024361;29;19915;-70
2023/01/10 03:32:31;;;;;;;;;;;7.60;99.90;;;;;;2024525;29;19958;-69
2023/01/10 03:33:33;;;;;;;;;;;7.60;99.90;;;;;;2025416;29;20558;-70
2023/01/10 03:34:34;;;;;;;;;;;7.70;99.90;;;;;;2028431;29;19914;-70
2023/01/10 03:35:41;;;;;;;;;;;7.60;99.90;;;;;;2031362;29;19919;-70
2023/01/10 03:36:54;;;;;;;;;;;7.60;99.90;;;;;;2023803;29;19915;-69
2023/01/10 03:37:56;;;;;;;;;;;7.60;99.90;;;;;;2025780;29;20350;-69
2023/01/10 03:39:03;;;;;;;;;;;7.60;99.90;;;;;;2030573;29;19915;-69
2023/01/10 03:40:26;;;;;;;;;;;7.60;99.90;;;;;;2030410;29;20022;-69
2023/01/10 03:41:45;;;;;;;;;;;7.70;99.90;;;;;;2025308;29;19931;-69
2023/01/10 03:45:40;;;;;;;;;;;7.60;99.90;;;;;;2023786;29;20457;-69
2023/01/10 03:46:45;;;;;;;;;;;7.60;99.90;;;;;;2023849;29;19942;-69
2023/01/10 03:47:48;;;;;;;;;;;7.60;99.90;;;;;;2023629;29;19915;-69
2023/01/10 03:48:49;;;;;;;;;;;7.60;99.90;;;;;;2025752;29;20328;-69
2023/01/10 03:49:52;;;;;;;;;;;7.60;99.90;;;;;;2022267;29;19911;-69
2023/01/10 03:50:53;;;;;;;;;;;7.60;99.90;;;;;;2023289;29;20003;-69
2023/01/10 03:51:55;;;;;;;;;;;7.60;99.90;;;;;;2024719;29;19912;-69
2023/01/10 03:52:56;;;;;;;;;;;7.60;99.90;;;;;;2023262;29;19939;-69
2023/01/10 03:53:58;;;;;;;;;;;7.60;99.90;;;;;;2025078;29;19939;-69
2023/01/10 03:55:01;;;;;;;;;;;7.60;99.90;;;;;;2024744;29;19998;-69
2023/01/10 03:56:01;;;;;;;;;;;7.60;99.90;;;;;;2024254;29;20280;-69
2023/01/10 03:57:02;;;;;;;;;;;7.60;99.90;;;;;;2024050;29;19937;-69
2023/01/10 03:58:02;;;;;;;;;;;7.60;99.90;;;;;;2025797;29;20005;-69
2023/01/10 03:59:03;;;;;;;;;;;7.60;99.90;;;;;;2023219;29;19915;-69
2023/01/10 04:00:04;;;;;;;;;;;7.60;99.90;;;;;;2025988;29;20442;-69
2023/01/10 04:01:04;;;;;;;;;;;7.50;99.90;;;;;;2023890;29;19918;-69
2023/01/10 04:02:05;;;;;;;;;;;7.50;99.90;;;;;;2026101;29;19918;-69
2023/01/10 04:03:08;;;;;;;;;;;7.50;99.90;;;;;;2025057;29;19915;-69
2023/01/10 04:04:10;;;;;;;;;;;7.50;99.90;;;;;;2025348;29;19915;-69
2023/01/10 04:05:11;;;;;;;;;;;7.50;99.90;;;;;;2024516;29;19954;-69
2023/01/10 04:06:11;;;;;;;;;;;7.50;99.90;;;;;;2024491;29;19973;-69
2023/01/10 04:07:12;;;;;;;;;;;7.50;99.90;;;;;;2032254;29;20359;-69
2023/01/10 04:08:12;;;;;;;;;;;7.50;99.90;;;;;;2032235;29;19962;-69
2023/01/10 04:09:13;;;;;;;;;;;7.50;99.90;;;;;;2026489;29;20790;-69
2023/01/10 04:10:13;;;;;;;;;;;7.50;99.90;;;;;;2024606;29;19946;-69
2023/01/10 04:11:14;;;;;;;;;;;7.50;99.90;;;;;;2023936;29;19907;-69
2023/01/10 04:12:14;;;;;;;;;;;7.40;99.90;;;;;;2025400;29;19919;-69
2023/01/10 04:13:15;;;;;;;;;;;7.50;99.90;;;;;;2025622;29;19915;-69
2023/01/10 04:14:15;;;;;;;;;;;7.40;99.90;;;;;;2025960;29;20389;-69
2023/01/10 04:15:16;;;;;;;;;;;7.50;99.90;;;;;;2024553;29;19915;-69
2023/01/10 04:16:16;;;;;;;;;;;7.40;99.90;;;;;;2025449;29;19907;-69
2023/01/10 04:17:17;;;;;;;;;;;7.40;99.90;;;;;;2024217;29;19911;-69
2023/01/10 04:18:18;;;;;;;;;;;7.40;99.90;;;;;;2024821;29;19944;-70
2023/01/10 04:19:18;;;;;;;;;;;7.40;99.90;;;;;;2024417;29;19918;-69
2023/01/10 04:20:19;;;;;;;;;;;7.40;99.90;;;;;;2024996;29;19915;-69
2023/01/10 04:21:19;;;;;;;;;;;7.40;99.90;;;;;;2026564;29;20316;-69
2023/01/10 04:22:20;;;;;;;;;;;7.40;99.90;;;;;;2024462;29;19908;-69
2023/01/10 04:23:20;;;;;;;;;;;7.40;99.90;;;;;;2023608;29;20348;-70
2023/01/10 04:24:21;;;;;;;;;;;7.30;99.90;;;;;;2025124;29;19912;-70
2023/01/10 04:25:22;;;;;;;;;;;7.30;99.90;;;;;;2023535;29;19937;-70
2023/01/10 04:26:22;;;;;;;;;;;7.30;99.90;;;;;;2025700;29;19931;-70
2023/01/10 04:27:23;;;;;;;;;;;7.30;99.90;;;;;;2023925;29;20055;-70
2023/01/10 04:28:23;;;;;;;;;;;7.30;99.90;;;;;;2024987;29;20022;-70
2023/01/10 04:29:24;;;;;;;;;;;7.30;99.90;;;;;;2024367;29;19937;-70
2023/01/10 04:30:24;;;;;;;;;;;7.30;99.90;;;;;;2026582;29;19918;-70
2023/01/10 04:31:25;;;;;;;;;;;7.30;99.90;;;;;;2022694;29;20352;-69
2023/01/10 04:32:26;;;;;;;;;;;7.30;99.90;;;;;;2022686;29;20334;-69
2023/01/10 04:33:27;;;;;;;;;;;7.30;99.90;;;;;;2023481;29;19911;-69
2023/01/10 04:34:27;;;;;;;;;;;7.30;99.90;;;;;;2024973;29;19915;-69
2023/01/10 04:35:28;;;;;;;;;;;7.30;99.90;;;;;;2025255;29;19956;-69
2023/01/10 04:36:28;;;;;;;;;;;7.20;99.90;;;;;;2024231;29;19912;-69
2023/01/10 04:37:29;;;;;;;;;;;7.20;99.90;;;;;;2023477;29;19916;-69
2023/01/10 04:38:29;;;;;;;;;;;7.20;99.90;;;;;;2023936;29;19915;-69
2023/01/10 04:39:30;;;;;;;;;;;7.20;99.90;;;;;;2025238;29;20400;-69
2023/01/10 04:40:30;;;;;;;;;;;7.20;99.90;;;;;;2026771;29;19937;-69
2023/01/10 04:41:31;;;;;;;;;;;7.20;99.90;;;;;;2027397;29;19911;-69
2023/01/10 04:42:31;;;;;;;;;;;7.20;99.90;;;;;;2023876;29;19915;-69
2023/01/10 04:43:32;;;;;;;;;;;7.20;99.90;;;;;;2025742;29;20007;-69
2023/01/10 04:44:32;;;;;;;;;;;7.20;99.90;;;;;;2025379;29;20006;-69
2023/01/10 04:45:32;;;;;;;;;;;7.20;99.90;;;;;;2024301;29;20585;-69
2023/01/10 04:46:33;;;;;;;;;;;7.20;99.90;;;;;;2024722;29;19922;-69
2023/01/10 04:47:33;;;;;;;;;;;7.20;99.90;;;;;;2024579;29;19919;-69
2023/01/10 04:48:36;;;;;;;;;;;7.10;99.90;;;;;;2031347;29;19923;-70
2023/01/10 04:49:36;;;;;;;;;;;7.10;99.90;;;;;;2024362;29;19917;-70
2023/01/10 04:50:37;;;;;;;;;;;7.10;99.90;;;;;;2024748;29;19914;-70
2023/01/10 04:51:37;;;;;;;;;;;7.10;99.90;;;;;;2024905;29;19911;-69
2023/01/10 04:52:39;;;;;;;;;;;7.10;99.90;;;;;;2023729;29;19911;-69
2023/01/10 04:53:40;;;;;;;;;;;7.10;99.90;;;;;;2024969;29;19977;-69
2023/01/10 04:54:40;;;;;;;;;;;7.10;99.90;;;;;;2026479;29;19911;-69
2023/01/10 04:55:41;;;;;;;;;;;7.00;99.90;;;;;;2024112;29;19911;-69
2023/01/10 04:56:41;;;;;;;;;;;7.10;99.90;;;;;;2026379;29;19911;-69
2023/01/10 04:57:42;;;;;;;;;;;7.10;99.90;;;;;;2025964;29;19947;-69
2023/01/10 04:58:42;;;;;;;;;;;7.10;99.90;;;;;;2025463;29;19960;-69
2023/01/10 04:59:43;;;;;;;;;;;7.00;99.90;;;;;;2028357;29;20715;-69
2023/01/10 05:00:43;;;;;;;;;;;7.00;99.90;;;;;;2026004;29;19931;-69
2023/01/10 05:01:43;;;;;;;;;;;7.00;99.90;;;;;;2024720;29;20086;-69
2023/01/10 05:02:44;;;;;;;;;;;7.00;99.90;;;;;;2026238;29;19915;-69
2023/01/10 05:03:46;;;;;;;;;;;7.10;99.90;;;;;;2024418;29;19919;-69
2023/01/10 05:04:46;;;;;;;;;;;7.10;99.90;;;;;;2026415;29;20318;-69
2023/01/10 05:05:47;;;;;;;;;;;7.10;99.90;;;;;;2024625;29;19911;-69
2023/01/10 05:06:48;;;;;;;;;;;7.00;99.90;;;;;;2024954;29;19926;-69
2023/01/10 05:07:49;;;;;;;;;;;7.10;99.90;;;;;;2025571;29;19939;-69
2023/01/10 05:08:49;;;;;;;;;;;7.10;99.90;;;;;;2026031;29;20302;-69
2023/01/10 05:09:50;;;;;;;;;;;7.10;99.90;;;;;;2025686;29;19957;-69
2023/01/10 05:10:50;;;;;;;;;;;7.10;99.90;;;;;;2028148;29;20461;-69
2023/01/10 05:11:50;;;;;;;;;;;7.00;99.90;;;;;;2027706;29;19996;-70
2023/01/10 05:12:51;;;;;;;;;;;7.10;99.90;;;;;;2026055;29;19919;-70
2023/01/10 05:13:51;;;;;;;;;;;7.10;99.90;;;;;;2023146;29;19950;-70
2023/01/10 05:14:52;;;;;;;;;;;7.10;99.90;;;;;;2025905;29;19958;-70
2023/01/10 05:15:54;;;;;;;;;;;7.10;99.90;;;;;;2022699;29;19922;-69
2023/01/10 05:16:55;;;;;;;;;;;7.00;99.90;;;;;;2022490;29;19959;-69
2023/01/10 05:17:59;;;;;;;;;;;7.00;99.90;;;;;;2026963;29;19914;-69
2023/01/10 05:18:59;;;;;;;;;;;7.00;99.90;;;;;;2027490;29;19908;-69
2023/01/10 05:20:00;;;;;;;;;;;7.00;99.90;;;;;;2024377;29;19919;-69
2023/01/10 05:21:08;;;;;;;;;;;7.00;99.90;;;;;;2027120;29;19937;-69
2023/01/10 05:22:08;;;;;;;;;;;7.00;99.90;;;;;;2027414;29;19912;-69
2023/01/10 05:23:09;;;;;;;;;;;7.00;99.90;;;;;;2024674;29;19923;-70
2023/01/10 05:24:09;;;;;;;;;;;7.00;99.90;;;;;;2027105;29;19907;-70
2023/01/10 05:25:10;;;;;;;;;;;7.00;99.90;;;;;;2025436;29;19950;-69
2023/01/10 05:26:13;;;;;;;;;;;7.00;99.90;;;;;;2026697;29;20387;-69
2023/01/10 05:27:13;;;;;;;;;;;7.00;99.90;;;;;;2024266;29;19935;-69
2023/01/10 05:28:13;;;;;;;;;;;7.00;99.90;;;;;;2026439;29;19922;-69
2023/01/10 05:29:14;;;;;;;;;;;7.00;99.90;;;;;;2025281;29;19966;-69
2023/01/10 05:30:14;;;;;;;;;;;7.00;99.90;;;;;;2023749;29;19962;-69
2023/01/10 05:31:16;;;;;;;;;;;7.00;99.90;;;;;;2023414;29;19919;-69
2023/01/10 05:32:17;;;;;;;;;;;7.00;99.90;;;;;;2022938;29;19911;-69
2023/01/10 05:33:17;;;;;;;;;;;7.00;99.90;;;;;;2021409;29;20057;-69
2023/01/10 05:34:17;;;;;;;;;;;6.90;99.90;;;;;;2021472;29;19990;-69
2023/01/10 05:35:18;;;;;;;;;;;6.90;99.90;;;;;;2005844;29;19919;-69
2023/01/10 05:36:18;;;;;;;;;;;7.00;99.90;;;;;;2024526;29;19994;-69
2023/01/10 05:37:19;;;;;;;;;;;7.00;99.90;;;;;;2024609;29;20344;-69
2023/01/10 05:38:19;;;;;;;;;;;7.00;99.90;;;;;;2027769;29;20426;-69
2023/01/10 05:39:20;;;;;;;;;;;7.00;99.90;;;;;;2024327;29;19912;-69
2023/01/10 05:40:20;;;;;;;;;;;6.90;99.90;;;;;;2025929;29;20541;-69
2023/01/10 05:41:22;;;;;;;;;;;6.90;99.90;;;;;;2026193;29;19959;-69
2023/01/10 05:42:22;;;;;;;;;;;6.90;99.90;;;;;;2024785;29;20419;-69
2023/01/10 05:43:24;;;;;;;;;;;6.90;99.90;;;;;;2022112;29;19908;-69
2023/01/10 05:44:25;;;;;;;;;;;6.90;99.90;;;;;;2026349;29;19974;-69
2023/01/10 05:45:25;;;;;;;;;;;6.90;99.90;;;;;;2024690;29;19990;-69
2023/01/10 05:46:26;;;;;;;;;;;6.90;99.90;;;;;;2024634;29;20014;-69
2023/01/10 05:47:26;;;;;;;;;;;6.90;99.90;;;;;;2026244;29;19911;-69
2023/01/10 05:48:26;;;;;;;;;;;6.90;99.90;;;;;;2023798;29;19919;-70
2023/01/10 05:49:27;;;;;;;;;;;6.90;99.90;;;;;;2024444;29;19950;-70
2023/01/10 05:50:27;;;;;;;;;;;6.90;99.90;;;;;;2023142;29;19922;-70
2023/01/10 05:51:28;;;;;;;;;;;6.90;99.90;;;;;;2023709;29;20006;-70
2023/01/10 05:52:28;;;;;;;;;;;6.90;99.90;;;;;;2024517;29;19915;-70
2023/01/10 05:53:29;;;;;;;;;;;6.90;99.90;;;;;;2023016;29;19911;-70
2023/01/10 05:54:29;;;;;;;;;;;6.80;99.90;;;;;;2024831;29;20360;-70
2023/01/10 05:55:30;;;;;;;;;;;6.90;99.90;;;;;;2023016;29;19923;-70
2023/01/10 05:56:31;;;;;;;;;;;6.90;99.90;;;;;;2017715;29;19926;-70
2023/01/10 05:57:31;;;;;;;;;;;6.90;99.90;;;;;;2023648;29;19912;-70
2023/01/10 05:58:32;;;;;;;;;;;6.90;99.90;;;;;;2023549;29;19922;-70
2023/01/10 05:59:32;;;;;;;;;;;6.80;99.90;;;;;;2027258;29;19919;-70
2023/01/10 06:00:33;;;;;;;;;;;6.80;99.90;;;;;;2024161;29;19949;-70
2023/01/10 06:01:33;;;;;;;;;;;6.80;99.90;;;;;;2024695;29;19930;-70
2023/01/10 06:02:34;;;;;;;;;;;6.80;99.90;;;;;;2025827;29;19979;-70
2023/01/10 06:03:34;;;;;;;;;;;6.80;99.90;;;;;;2022155;29;19939;-70
2023/01/10 06:04:35;;;;;;;;;;;6.80;99.90;;;;;;2023943;29;19926;-70
2023/01/10 06:05:35;;;;;;;;;;;6.80;99.90;;;;;;2024290;29;19915;-70
2023/01/10 06:06:36;;;;;;;;;;;6.80;99.90;;;;;;2026629;29;19939;-70
2023/01/10 06:07:36;;;;;;;;;;;6.80;99.90;;;;;;2023708;29;19912;-70
2023/01/10 06:08:37;;;;;;;;;;;6.80;99.90;;;;;;2023820;29;19921;-70
2023/01/10 06:09:37;;;;;;;;;;;6.80;99.90;;;;;;2024298;29;19918;-70
2023/01/10 06:10:38;;;;;;;;;;;6.80;99.90;;;;;;2025001;29;19968;-70
2023/01/10 06:11:38;;;;;;;;;;;6.80;99.90;;;;;;2024922;29;20002;-70
2023/01/10 06:12:39;;;;;;;;;;;6.80;99.90;;;;;;2027063;29;20480;-70
2023/01/10 06:13:39;;;;;;;;;;;6.80;99.90;;;;;;2022497;29;19911;-70
2023/01/10 06:14:40;;;;;;;;;;;6.80;99.90;;;;;;2022813;29;19919;-70
2023/01/10 06:15:40;;;;;;;;;;;6.70;99.90;;;;;;2024315;29;19915;-70
2023/01/10 06:16:42;;;;;;;;;;;6.80;99.90;;;;;;2028701;29;19926;-70
2023/01/10 06:17:44;;;;;;;;;;;6.70;99.90;;;;;;2032713;29;19982;-70
2023/01/10 06:18:44;;;;;;;;;;;6.70;99.90;;;;;;2024372;29;19911;-70